Aviation Digital Data Service (ADDS)

Output produced by METARs form (1909 UTC 23 January 2019)
found at http://aviationweather.gov/metar/data/
 
KHDC 231855Z AUTO 36007KT 4SM RA BKN007 OVC013 12/12 A2989 RMK AO2 LTG DSNT NE THRU SW
KHDC 231835Z AUTO 32013G17KT 4SM +RA BKN009 BKN018 OVC048 13/12 A2991 RMK AO2 LTG DSNT NE AND E
KHDC 231815Z AUTO 35012KT 4SM RA BKN011 BKN029 OVC050 13/12 A2989 RMK AO2 LTG DSNT NE AND E
KHDC 231738Z 2318/2418 31010KT 3SM -SHRA BKN008 OVC020 
     TEMPO 2323/2401 2SM RA BR 
     FM240100 32011KT P6SM OVC020 
     FM240500 31009KT P6SM SCT020 OVC050 
     FM240800 31005KT P6SM SCT100